AVA9820 SKCG-SKBG
Flight info
| Callsign | AVA9820 |
|---|---|
| Flight time | 0h 43m |
| Altitude | 23000 |
| Route | ILMIK2A ILMIK DCT UGREB W10 MGN W35 IVRIK IVRIK1B |
| Aircraft | A319/M-SDE3FGHIRWY/LB1 |
Departure
| Time | 2026-04-25 19:46 |
|---|---|
| Airport | Rafael Nuñez International Airport (SKCG) |
Arrival
| Time | 2026-04-25 20:29 |
|---|---|
| Airport | Palonegro Airport (SKBG) |
| Time | Latitude | Longitude | Altitude | Speed | Heading |
|---|---|---|---|---|---|
| 2026-04-25 19:25 | 10.44610 | -75.51549 | 51 ft | 0 kts | 272° |
| 2026-04-25 19:32 | 10.44610 | -75.51544 | 51 ft | 4 kts | 272° |
| 2026-04-25 19:32 | 10.44609 | -75.51535 | 51 ft | 4 kts | 273° |
| 2026-04-25 19:33 | 10.44608 | -75.51491 | 51 ft | 4 kts | 255° |
| 2026-04-25 19:33 | 10.44619 | -75.51471 | 49 ft | 4 kts | 199° |
| 2026-04-25 19:33 | 10.44625 | -75.51469 | 50 ft | 4 kts | 182° |
| 2026-04-25 19:35 | 10.44636 | -75.51469 | 51 ft | 4 kts | 163° |
| 2026-04-25 19:36 | 10.44646 | -75.51473 | 50 ft | 4 kts | 148° |
| 2026-04-25 19:36 | 10.44655 | -75.51479 | 49 ft | 0 kts | 137° |
| 2026-04-25 19:41 | 10.44645 | -75.51467 | 48 ft | 5 kts | 127° |
| 2026-04-25 19:41 | 10.44634 | -75.51405 | 51 ft | 14 kts | 91° |
| 2026-04-25 19:41 | 10.44649 | -75.51325 | 51 ft | 21 kts | 89° |
| 2026-04-25 19:42 | 10.44460 | -75.51277 | 51 ft | 26 kts | 182° |
| 2026-04-25 19:42 | 10.44266 | -75.51285 | 51 ft | 30 kts | 182° |
| 2026-04-25 19:42 | 10.44118 | -75.51291 | 51 ft | 32 kts | 182° |
| 2026-04-25 19:43 | 10.43973 | -75.51298 | 49 ft | 34 kts | 182° |
| 2026-04-25 19:43 | 10.43724 | -75.51308 | 50 ft | 37 kts | 182° |
| 2026-04-25 19:43 | 10.43453 | -75.51321 | 50 ft | 41 kts | 182° |
| 2026-04-25 19:43 | 10.43161 | -75.51318 | 51 ft | 43 kts | 173° |
| 2026-04-25 19:44 | 10.43058 | -75.51316 | 51 ft | 0 kts | 199° |
| 2026-04-25 19:45 | 10.43039 | -75.51329 | 50 ft | 12 kts | 229° |
| 2026-04-25 19:45 | 10.43041 | -75.51355 | 51 ft | 0 kts | 306° |
| 2026-04-25 19:45 | 10.43048 | -75.51360 | 51 ft | 7 kts | 327° |
| 2026-04-25 19:45 | 10.43136 | -75.51334 | 45 ft | 18 kts | 2° |
| 2026-04-25 19:46 | 10.43491 | -75.51322 | 46 ft | 84 kts | 2° |
| 2026-04-25 19:46 | 10.44259 | -75.51294 | 51 ft | 138 kts | 2° |
| 2026-04-25 19:46 | 10.45324 | -75.51254 | 317 ft | 158 kts | 359° |
| 2026-04-25 19:46 | 10.46429 | -75.51206 | 803 ft | 161 kts | 358° |
| 2026-04-25 19:47 | 10.47566 | -75.51150 | 1348 ft | 168 kts | 0° |
| 2026-04-25 19:47 | 10.48805 | -75.51100 | 1666 ft | 189 kts | 359° |
| 2026-04-25 19:47 | 10.50185 | -75.50885 | 1898 ft | 216 kts | 22° |
| 2026-04-25 19:47 | 10.51235 | -75.49756 | 2301 ft | 230 kts | 68° |
| 2026-04-25 19:48 | 10.51286 | -75.48158 | 2933 ft | 232 kts | 111° |
| 2026-04-25 19:48 | 10.50297 | -75.46911 | 3713 ft | 231 kts | 150° |
| 2026-04-25 19:48 | 10.48820 | -75.46295 | 4528 ft | 230 kts | 165° |
| 2026-04-25 19:48 | 10.47261 | -75.45898 | 5294 ft | 232 kts | 168° |
| 2026-04-25 19:49 | 10.45676 | -75.45539 | 6059 ft | 234 kts | 168° |
| 2026-04-25 19:49 | 10.44604 | -75.45285 | 6548 ft | 236 kts | 168° |
| 2026-04-25 19:49 | 10.42477 | -75.44738 | 7470 ft | 240 kts | 167° |
| 2026-04-25 19:49 | 10.40852 | -75.44285 | 8165 ft | 244 kts | 166° |
| 2026-04-25 19:50 | 10.37464 | -75.43006 | 8986 ft | 282 kts | 160° |
| 2026-04-25 19:50 | 10.35587 | -75.42240 | 9506 ft | 296 kts | 159° |
| 2026-04-25 19:50 | 10.33666 | -75.41444 | 10147 ft | 305 kts | 159° |
| 2026-04-25 19:51 | 10.31627 | -75.40599 | 10367 ft | 328 kts | 159° |
| 2026-04-25 19:51 | 10.29471 | -75.39708 | 10844 ft | 338 kts | 159° |
| 2026-04-25 19:51 | 10.27273 | -75.38800 | 11482 ft | 343 kts | 159° |
| 2026-04-25 19:51 | 10.25049 | -75.37881 | 12163 ft | 347 kts | 159° |
| 2026-04-25 19:52 | 10.22804 | -75.36954 | 12839 ft | 350 kts | 159° |
| 2026-04-25 19:52 | 10.20535 | -75.36019 | 13513 ft | 354 kts | 159° |
| 2026-04-25 19:52 | 10.18242 | -75.35076 | 14105 ft | 357 kts | 159° |
| 2026-04-25 19:52 | 10.15928 | -75.34123 | 14679 ft | 360 kts | 159° |
| 2026-04-25 19:53 | 10.13593 | -75.33162 | 15243 ft | 364 kts | 159° |
| 2026-04-25 19:53 | 10.11244 | -75.32194 | 15809 ft | 367 kts | 159° |
| 2026-04-25 19:53 | 10.08871 | -75.31213 | 16385 ft | 369 kts | 159° |
| 2026-04-25 19:53 | 10.06480 | -75.30226 | 16941 ft | 373 kts | 159° |
| 2026-04-25 19:54 | 10.04066 | -75.29234 | 17518 ft | 376 kts | 159° |
| 2026-04-25 19:54 | 10.01633 | -75.28236 | 18064 ft | 379 kts | 159° |
| 2026-04-25 19:54 | 9.99179 | -75.27229 | 18537 ft | 382 kts | 159° |
| 2026-04-25 19:54 | 9.97540 | -75.26557 | 18829 ft | 384 kts | 159° |
| 2026-04-25 19:55 | 9.94208 | -75.25188 | 19443 ft | 389 kts | 159° |
| 2026-04-25 19:55 | 9.91693 | -75.24152 | 19902 ft | 392 kts | 159° |
| 2026-04-25 19:55 | 9.89156 | -75.23109 | 20359 ft | 395 kts | 159° |
| 2026-04-25 19:55 | 9.86600 | -75.22061 | 20817 ft | 398 kts | 159° |
| 2026-04-25 19:56 | 9.84027 | -75.21005 | 21287 ft | 400 kts | 158° |
| 2026-04-25 19:56 | 9.81441 | -75.19943 | 21749 ft | 403 kts | 159° |
| 2026-04-25 19:56 | 9.78832 | -75.18873 | 22198 ft | 406 kts | 159° |
| 2026-04-25 19:56 | 9.76203 | -75.17793 | 22623 ft | 410 kts | 158° |
| 2026-04-25 19:57 | 9.73565 | -75.16594 | 22775 ft | 421 kts | 151° |
| 2026-04-25 19:57 | 9.71089 | -75.14940 | 22879 ft | 432 kts | 145° |
| 2026-04-25 19:57 | 9.68602 | -75.13160 | 22895 ft | 443 kts | 145° |
| 2026-04-25 19:57 | 9.66049 | -75.11334 | 22893 ft | 454 kts | 145° |
| 2026-04-25 19:58 | 9.63438 | -75.09473 | 22892 ft | 463 kts | 145° |
| 2026-04-25 19:58 | 9.60772 | -75.07572 | 22893 ft | 471 kts | 145° |
| 2026-04-25 19:58 | 9.58069 | -75.05646 | 22893 ft | 478 kts | 145° |
| 2026-04-25 19:58 | 9.55335 | -75.03697 | 22888 ft | 484 kts | 145° |
| 2026-04-25 19:59 | 9.52565 | -75.01723 | 22887 ft | 489 kts | 145° |
| 2026-04-25 19:59 | 9.49767 | -74.99728 | 22888 ft | 494 kts | 145° |
| 2026-04-25 19:59 | 9.46948 | -74.97716 | 22887 ft | 497 kts | 145° |
| 2026-04-25 19:59 | 9.44119 | -74.95691 | 22887 ft | 498 kts | 145° |
| 2026-04-25 20:00 | 9.41288 | -74.93662 | 22887 ft | 499 kts | 145° |
| 2026-04-25 20:00 | 9.39410 | -74.92316 | 22891 ft | 499 kts | 145° |
| 2026-04-25 20:00 | 9.35620 | -74.89599 | 22889 ft | 499 kts | 145° |
| 2026-04-25 20:00 | 9.32786 | -74.87568 | 22891 ft | 499 kts | 145° |
| 2026-04-25 20:01 | 9.27121 | -74.83500 | 22887 ft | 499 kts | 144° |
| 2026-04-25 20:01 | 9.24334 | -74.81403 | 22885 ft | 499 kts | 143° |
| 2026-04-25 20:01 | 9.21588 | -74.79260 | 22885 ft | 499 kts | 142° |
| 2026-04-25 20:02 | 9.18858 | -74.77087 | 22880 ft | 499 kts | 142° |
| 2026-04-25 20:02 | 9.16134 | -74.74908 | 22879 ft | 499 kts | 142° |
| 2026-04-25 20:02 | 9.13403 | -74.72740 | 22879 ft | 499 kts | 142° |
| 2026-04-25 20:02 | 9.10661 | -74.70588 | 22881 ft | 499 kts | 142° |
| 2026-04-25 20:03 | 9.07911 | -74.68450 | 22883 ft | 498 kts | 143° |
| 2026-04-25 20:03 | 9.05157 | -74.66320 | 22883 ft | 498 kts | 143° |
| 2026-04-25 20:03 | 9.02402 | -74.64194 | 22880 ft | 498 kts | 143° |
| 2026-04-25 20:03 | 8.99647 | -74.62066 | 22873 ft | 498 kts | 143° |
| 2026-04-25 20:04 | 8.96895 | -74.59934 | 22871 ft | 498 kts | 143° |
| 2026-04-25 20:04 | 8.94146 | -74.57800 | 22873 ft | 498 kts | 142° |
| 2026-04-25 20:04 | 8.91401 | -74.55664 | 22873 ft | 498 kts | 142° |
| 2026-04-25 20:04 | 8.88654 | -74.53530 | 22876 ft | 498 kts | 143° |
| 2026-04-25 20:05 | 8.85907 | -74.51399 | 22876 ft | 498 kts | 143° |
| 2026-04-25 20:05 | 8.83159 | -74.49268 | 22875 ft | 498 kts | 143° |
| 2026-04-25 20:05 | 8.80415 | -74.47144 | 22873 ft | 498 kts | 143° |
| 2026-04-25 20:05 | 8.77663 | -74.45018 | 22873 ft | 498 kts | 143° |
| 2026-04-25 20:06 | 8.74911 | -74.42893 | 22879 ft | 498 kts | 143° |
| 2026-04-25 20:06 | 8.72160 | -74.40767 | 22879 ft | 498 kts | 143° |
| 2026-04-25 20:06 | 8.69409 | -74.38642 | 22880 ft | 498 kts | 143° |
| 2026-04-25 20:06 | 8.66660 | -74.36517 | 22884 ft | 497 kts | 142° |
| 2026-04-25 20:07 | 8.63913 | -74.34393 | 22894 ft | 497 kts | 142° |
| 2026-04-25 20:07 | 8.61168 | -74.32275 | 22913 ft | 496 kts | 143° |
| 2026-04-25 20:07 | 8.58461 | -74.30188 | 22912 ft | 496 kts | 142° |
| 2026-04-25 20:07 | 8.55725 | -74.28073 | 22914 ft | 495 kts | 142° |
| 2026-04-25 20:08 | 8.52989 | -74.25957 | 22912 ft | 495 kts | 142° |
| 2026-04-25 20:08 | 8.50254 | -74.23843 | 22911 ft | 495 kts | 142° |
| 2026-04-25 20:08 | 8.47518 | -74.21732 | 22909 ft | 495 kts | 142° |
| 2026-04-25 20:08 | 8.44783 | -74.19623 | 22913 ft | 495 kts | 142° |
| 2026-04-25 20:09 | 8.42055 | -74.17518 | 22911 ft | 494 kts | 142° |
| 2026-04-25 20:09 | 8.39322 | -74.15408 | 22909 ft | 494 kts | 142° |
| 2026-04-25 20:09 | 8.36588 | -74.13298 | 22900 ft | 495 kts | 142° |
| 2026-04-25 20:09 | 8.33844 | -74.11180 | 22895 ft | 496 kts | 142° |
| 2026-04-25 20:10 | 8.31108 | -74.09073 | 22895 ft | 496 kts | 142° |
| 2026-04-25 20:10 | 8.28361 | -74.06961 | 22880 ft | 496 kts | 142° |
| 2026-04-25 20:10 | 8.25612 | -74.04847 | 22883 ft | 497 kts | 142° |
| 2026-04-25 20:10 | 8.22862 | -74.02730 | 22884 ft | 497 kts | 142° |
| 2026-04-25 20:11 | 8.20110 | -74.00613 | 22886 ft | 497 kts | 142° |
| 2026-04-25 20:11 | 8.17362 | -73.98496 | 22889 ft | 498 kts | 143° |
| 2026-04-25 20:11 | 8.14603 | -73.96370 | 22887 ft | 498 kts | 143° |
| 2026-04-25 20:11 | 8.11850 | -73.94250 | 22890 ft | 498 kts | 143° |
| 2026-04-25 20:12 | 8.09100 | -73.92130 | 22872 ft | 497 kts | 143° |
| 2026-04-25 20:12 | 8.06353 | -73.90017 | 22871 ft | 496 kts | 143° |
| 2026-04-25 20:12 | 8.03597 | -73.87919 | 22867 ft | 496 kts | 144° |
| 2026-04-25 20:12 | 8.02656 | -73.87227 | 22870 ft | 497 kts | 144° |
| 2026-04-25 20:13 | 7.97923 | -73.83933 | 22861 ft | 497 kts | 147° |
| 2026-04-25 20:13 | 7.95030 | -73.82011 | 22864 ft | 498 kts | 147° |
| 2026-04-25 20:13 | 7.92130 | -73.80096 | 22868 ft | 498 kts | 147° |
| 2026-04-25 20:13 | 7.89239 | -73.78168 | 22859 ft | 498 kts | 147° |
| 2026-04-25 20:14 | 7.86360 | -73.76219 | 22854 ft | 498 kts | 146° |
| 2026-04-25 20:14 | 7.83491 | -73.74255 | 22855 ft | 498 kts | 146° |
| 2026-04-25 20:14 | 7.80628 | -73.72282 | 22858 ft | 498 kts | 146° |
| 2026-04-25 20:14 | 7.77767 | -73.70305 | 22859 ft | 498 kts | 146° |
| 2026-04-25 20:15 | 7.74913 | -73.68334 | 22861 ft | 498 kts | 146° |
| 2026-04-25 20:15 | 7.72049 | -73.66364 | 22864 ft | 498 kts | 146° |
| 2026-04-25 20:15 | 7.69182 | -73.64398 | 22867 ft | 498 kts | 146° |
| 2026-04-25 20:15 | 7.66311 | -73.62436 | 22868 ft | 498 kts | 146° |
| 2026-04-25 20:16 | 7.63435 | -73.60473 | 22872 ft | 498 kts | 146° |
| 2026-04-25 20:16 | 7.60567 | -73.58513 | 22872 ft | 498 kts | 146° |
| 2026-04-25 20:16 | 7.57700 | -73.56553 | 22877 ft | 498 kts | 146° |
| 2026-04-25 20:16 | 7.54833 | -73.54593 | 22876 ft | 498 kts | 146° |
| 2026-04-25 20:17 | 7.51967 | -73.52634 | 22878 ft | 498 kts | 146° |
| 2026-04-25 20:17 | 7.49102 | -73.50671 | 22897 ft | 498 kts | 146° |
| 2026-04-25 20:17 | 7.46236 | -73.48708 | 22899 ft | 498 kts | 146° |
| 2026-04-25 20:17 | 7.43400 | -73.46763 | 22633 ft | 484 kts | 146° |
| 2026-04-25 20:18 | 7.40652 | -73.44881 | 21380 ft | 473 kts | 146° |
| 2026-04-25 20:18 | 7.37958 | -73.43039 | 20178 ft | 463 kts | 146° |
| 2026-04-25 20:18 | 7.35321 | -73.41237 | 19077 ft | 455 kts | 146° |
| 2026-04-25 20:18 | 7.32721 | -73.39469 | 17994 ft | 446 kts | 148° |
| 2026-04-25 20:19 | 7.30004 | -73.38035 | 16809 ft | 437 kts | 155° |
| 2026-04-25 20:19 | 7.27268 | -73.36740 | 15687 ft | 431 kts | 155° |
| 2026-04-25 20:19 | 7.24572 | -73.35463 | 14624 ft | 425 kts | 155° |
| 2026-04-25 20:19 | 7.21913 | -73.34204 | 13634 ft | 419 kts | 155° |
| 2026-04-25 20:20 | 7.19293 | -73.32962 | 12557 ft | 413 kts | 155° |
| 2026-04-25 20:20 | 7.16714 | -73.31744 | 11620 ft | 404 kts | 155° |
| 2026-04-25 20:20 | 7.14238 | -73.30576 | 11247 ft | 380 kts | 155° |
| 2026-04-25 20:20 | 7.11933 | -73.29486 | 11088 ft | 353 kts | 155° |
| 2026-04-25 20:21 | 7.09791 | -73.28471 | 10989 ft | 328 kts | 155° |
| 2026-04-25 20:21 | 7.07809 | -73.27533 | 10995 ft | 302 kts | 155° |
| 2026-04-25 20:21 | 7.05976 | -73.26681 | 11001 ft | 279 kts | 157° |
| 2026-04-25 20:21 | 7.04245 | -73.25975 | 11000 ft | 261 kts | 159° |
| 2026-04-25 20:22 | 7.02562 | -73.25342 | 10925 ft | 252 kts | 160° |
| 2026-04-25 20:22 | 7.02035 | -73.25148 | 10900 ft | 247 kts | 160° |
| 2026-04-25 20:22 | 6.99933 | -73.24383 | 10389 ft | 240 kts | 160° |
| 2026-04-25 20:22 | 6.98360 | -73.23809 | 9884 ft | 239 kts | 161° |
| 2026-04-25 20:23 | 6.96802 | -73.23234 | 9332 ft | 238 kts | 160° |
| 2026-04-25 20:23 | 6.95283 | -73.22594 | 8814 ft | 237 kts | 148° |
| 2026-04-25 20:23 | 6.94153 | -73.21436 | 8464 ft | 227 kts | 120° |
| 2026-04-25 20:23 | 6.93612 | -73.19452 | 7653 ft | 225 kts | 86° |
| 2026-04-25 20:24 | 6.93821 | -73.18429 | 7383 ft | 216 kts | 68° |
| 2026-04-25 20:24 | 6.94339 | -73.17107 | 7270 ft | 192 kts | 68° |
| 2026-04-25 20:24 | 6.94793 | -73.15904 | 7002 ft | 178 kts | 67° |
| 2026-04-25 20:24 | 6.95294 | -73.14772 | 6983 ft | 178 kts | 55° |
| 2026-04-25 20:25 | 6.96136 | -73.13865 | 6888 ft | 176 kts | 35° |
| 2026-04-25 20:25 | 6.97180 | -73.13351 | 6658 ft | 158 kts | 14° |
| 2026-04-25 20:25 | 6.98217 | -73.13230 | 6497 ft | 146 kts | 357° |
| 2026-04-25 20:25 | 6.99195 | -73.13417 | 6343 ft | 142 kts | 341° |
| 2026-04-25 20:26 | 7.00116 | -73.13763 | 6176 ft | 141 kts | 340° |
| 2026-04-25 20:26 | 7.01035 | -73.14108 | 5989 ft | 141 kts | 340° |
| 2026-04-25 20:26 | 7.01953 | -73.14453 | 5802 ft | 141 kts | 339° |
| 2026-04-25 20:26 | 7.02879 | -73.14801 | 5621 ft | 141 kts | 340° |
| 2026-04-25 20:27 | 7.03785 | -73.15142 | 5483 ft | 139 kts | 340° |
| 2026-04-25 20:27 | 7.04698 | -73.15485 | 5314 ft | 140 kts | 341° |
| 2026-04-25 20:27 | 7.05603 | -73.15827 | 5105 ft | 139 kts | 340° |
| 2026-04-25 20:27 | 7.06501 | -73.16170 | 4919 ft | 139 kts | 340° |
| 2026-04-25 20:28 | 7.07406 | -73.16517 | 4807 ft | 139 kts | 339° |
| 2026-04-25 20:28 | 7.08322 | -73.16860 | 4591 ft | 141 kts | 340° |
| 2026-04-25 20:28 | 7.09240 | -73.17201 | 4427 ft | 140 kts | 340° |
| 2026-04-25 20:28 | 7.10159 | -73.17543 | 4234 ft | 142 kts | 339° |
| 2026-04-25 20:29 | 7.11082 | -73.17890 | 4019 ft | 141 kts | 339° |
| 2026-04-25 20:29 | 7.12001 | -73.18233 | 3888 ft | 139 kts | 340° |
| 2026-04-25 20:29 | 7.12753 | -73.18517 | 3903 ft | 70 kts | 339° |
| 2026-04-25 20:29 | 7.12913 | -73.18543 | 3912 ft | 10 kts | 54° |
| 2026-04-25 20:30 | 7.12923 | -73.18479 | 3911 ft | 10 kts | 113° |
| 2026-04-25 20:30 | 7.12869 | -73.18440 | 3910 ft | 8 kts | 176° |
| 2026-04-25 20:30 | 7.12817 | -73.18434 | 3908 ft | 8 kts | 162° |
| 2026-04-25 20:30 | 7.12753 | -73.18410 | 3904 ft | 12 kts | 159° |
| 2026-04-25 20:31 | 7.12684 | -73.18356 | 3903 ft | 14 kts | 104° |
| 2026-04-25 20:31 | 7.12683 | -73.18260 | 3899 ft | 15 kts | 92° |
| 2026-04-25 20:31 | 7.12694 | -73.18196 | 3898 ft | 4 kts | 17° |
| 2026-04-25 20:31 | 7.12730 | -73.18188 | 3897 ft | 0 kts | 12° |